createdAt,value
2018-12-17T00:00:23.540Z,1007.55
2018-12-17T00:01:23.548Z,1007.51
2018-12-17T00:02:23.556Z,1007.46
2018-12-17T00:03:23.571Z,1007.46
2018-12-17T00:04:23.584Z,1007.47
2018-12-17T00:05:23.599Z,1007.45
2018-12-17T00:06:23.608Z,1007.47
2018-12-17T00:07:23.621Z,1007.41
2018-12-17T00:08:23.635Z,1007.41
2018-12-17T00:09:23.641Z,1007.40
2018-12-17T00:10:23.657Z,1007.39
2018-12-17T00:11:23.664Z,1007.36
2018-12-17T00:12:23.683Z,1007.35
2018-12-17T00:13:23.755Z,1007.34
2018-12-17T00:14:23.700Z,1007.34
2018-12-17T00:15:23.708Z,1007.34
2018-12-17T00:16:23.788Z,1007.31
2018-12-17T00:17:23.730Z,1007.26
2018-12-17T00:18:23.741Z,1007.31
2018-12-17T00:19:23.756Z,1007.32
2018-12-17T00:20:23.767Z,1007.32
2018-12-17T00:21:23.783Z,1007.32
2018-12-17T00:22:23.793Z,1007.32
2018-12-17T00:23:23.806Z,1007.28
2018-12-17T00:24:23.814Z,1007.29
2018-12-17T00:25:23.826Z,1007.30
2018-12-17T00:26:23.833Z,1007.27
2018-12-17T00:27:23.843Z,1007.28
2018-12-17T00:28:23.859Z,1007.27
2018-12-17T00:29:23.866Z,1007.21
2018-12-17T00:30:23.879Z,1007.22
2018-12-17T00:31:23.894Z,1007.21
2018-12-17T00:32:23.911Z,1007.21
2018-12-17T00:33:23.915Z,1007.18
2018-12-17T00:34:23.937Z,1007.21
2018-12-17T00:35:23.940Z,1007.19
2018-12-17T00:36:23.951Z,1007.22
2018-12-17T00:37:23.960Z,1007.22
2018-12-17T00:38:23.968Z,1007.22
2018-12-17T00:39:23.981Z,1007.24
2018-12-17T00:40:23.999Z,1007.26
2018-12-17T00:41:24.031Z,1007.24
2018-12-17T00:42:24.013Z,1007.22
2018-12-17T00:43:24.028Z,1007.21
2018-12-17T00:44:24.049Z,1007.14
2018-12-17T00:45:24.049Z,1007.20
2018-12-17T00:46:24.061Z,1007.21
2018-12-17T00:47:24.078Z,1007.22
2018-12-17T00:48:24.082Z,1007.20
2018-12-17T00:49:24.094Z,1007.20
2018-12-17T00:50:24.102Z,1007.23
2018-12-17T00:51:24.112Z,1007.18
2018-12-17T00:52:24.125Z,1007.20
2018-12-17T00:53:24.136Z,1007.16
2018-12-17T00:54:24.150Z,1007.20
2018-12-17T00:55:24.154Z,1007.19
2018-12-17T00:56:24.172Z,1007.15
2018-12-17T00:57:24.181Z,1007.11
2018-12-17T00:58:24.193Z,1007.11
2018-12-17T00:59:24.201Z,1007.11
2018-12-17T01:00:24.212Z,1007.09
2018-12-17T01:01:24.224Z,1007.08
2018-12-17T01:02:24.237Z,1007.12
2018-12-17T01:03:24.246Z,1007.09
2018-12-17T01:04:24.254Z,1007.06
2018-12-17T01:05:24.263Z,1007.11
2018-12-17T01:06:24.276Z,1007.12
2018-12-17T01:07:24.285Z,1007.15
2018-12-17T01:08:24.297Z,1007.10
2018-12-17T01:09:24.305Z,1007.15
2018-12-17T01:10:24.314Z,1007.17
2018-12-17T01:11:24.331Z,1007.21
2018-12-17T01:12:24.345Z,1007.19
2018-12-17T01:13:24.356Z,1007.22
2018-12-17T01:14:24.361Z,1007.25
2018-12-17T01:15:24.367Z,1007.25
2018-12-17T01:16:24.379Z,1007.23
2018-12-17T01:17:24.393Z,1007.20
2018-12-17T01:18:24.403Z,1007.22
2018-12-17T01:19:24.414Z,1007.21
2018-12-17T01:20:24.433Z,1007.22
2018-12-17T01:21:24.430Z,1007.22
2018-12-17T01:22:24.444Z,1007.18
2018-12-17T01:23:24.455Z,1007.15
2018-12-17T01:24:24.465Z,1007.19
2018-12-17T01:25:24.474Z,1007.22
2018-12-17T01:26:24.501Z,1007.19
2018-12-17T01:27:24.502Z,1007.21
2018-12-17T01:28:24.503Z,1007.18
2018-12-17T01:29:24.517Z,1007.21
2018-12-17T01:30:24.588Z,1007.21
2018-12-17T01:31:24.541Z,1007.21
2018-12-17T01:32:24.551Z,1007.23
2018-12-17T01:33:24.562Z,1007.29
2018-12-17T01:34:24.568Z,1007.28
2018-12-17T01:35:24.576Z,1007.31
2018-12-17T01:36:24.591Z,1007.26
2018-12-17T01:37:24.601Z,1007.30
2018-12-17T01:38:24.614Z,1007.30
2018-12-17T01:39:24.626Z,1007.33
2018-12-17T01:40:24.633Z,1007.32
2018-12-17T01:41:24.642Z,1007.34
2018-12-17T01:42:24.653Z,1007.38
2018-12-17T01:43:24.661Z,1007.34
2018-12-17T01:44:24.670Z,1007.35
2018-12-17T01:45:24.728Z,1007.30
2018-12-17T01:46:24.695Z,1007.26
2018-12-17T01:47:24.710Z,1007.37
2018-12-17T01:48:24.713Z,1007.37
2018-12-17T01:49:24.726Z,1007.39
2018-12-17T01:50:24.744Z,1007.37
2018-12-17T01:51:24.751Z,1007.41
2018-12-17T01:52:24.774Z,1007.31
2018-12-17T01:53:24.768Z,1007.32
2018-12-17T01:54:24.781Z,1007.32
2018-12-17T01:55:24.784Z,1007.34
2018-12-17T01:56:24.800Z,1007.36
2018-12-17T01:57:24.824Z,1007.31
2018-12-17T01:58:29.168Z,1007.29
2018-12-17T01:59:24.832Z,1007.32
2018-12-17T02:00:24.841Z,1007.33
2018-12-17T02:01:24.849Z,1007.34
2018-12-17T02:02:24.860Z,1007.34
2018-12-17T02:03:24.871Z,1007.34
2018-12-17T02:04:24.884Z,1007.39
2018-12-17T02:05:24.893Z,1007.36
2018-12-17T02:06:24.903Z,1007.38
2018-12-17T02:07:24.916Z,1007.37
2018-12-17T02:08:24.922Z,1007.36
2018-12-17T02:09:24.937Z,1007.35
2018-12-17T02:10:24.945Z,1007.33
2018-12-17T02:11:24.992Z,1007.38
2018-12-17T02:12:25.014Z,1007.35
2018-12-17T02:13:24.978Z,1007.34
2018-12-17T02:14:25.010Z,1007.35
2018-12-17T02:15:25.001Z,1007.35
2018-12-17T02:16:25.005Z,1007.33
2018-12-17T02:17:25.023Z,1007.36
2018-12-17T02:18:25.040Z,1007.35
2018-12-17T02:19:25.054Z,1007.41
2018-12-17T02:20:25.052Z,1007.38
2018-12-17T02:21:25.061Z,1007.41
2018-12-17T02:22:25.075Z,1007.39
2018-12-17T02:23:25.083Z,1007.41
2018-12-17T02:24:25.097Z,1007.38
2018-12-17T02:25:25.111Z,1007.42
2018-12-17T02:26:25.122Z,1007.40
2018-12-17T02:27:25.131Z,1007.42
2018-12-17T02:28:25.139Z,1007.43
2018-12-17T02:29:25.147Z,1007.43
2018-12-17T02:30:25.160Z,1007.42
2018-12-17T02:31:25.171Z,1007.43
2018-12-17T02:32:25.181Z,1007.47
2018-12-17T02:33:25.195Z,1007.46
2018-12-17T02:34:25.200Z,1007.48
2018-12-17T02:35:25.318Z,1007.44
2018-12-17T02:36:25.225Z,1007.44
2018-12-17T02:37:25.238Z,1007.49
2018-12-17T02:38:25.278Z,1007.46
2018-12-17T02:39:25.253Z,1007.47
2018-12-17T02:40:25.265Z,1007.42
2018-12-17T02:41:25.281Z,1007.45
2018-12-17T02:42:25.289Z,1007.39
2018-12-17T02:43:25.296Z,1007.46
2018-12-17T02:44:25.312Z,1007.48
2018-12-17T02:45:25.321Z,1007.47
2018-12-17T02:46:25.328Z,1007.47
2018-12-17T02:47:25.340Z,1007.47
2018-12-17T02:48:25.351Z,1007.54
2018-12-17T02:49:25.369Z,1007.56
2018-12-17T02:50:25.381Z,1007.54
2018-12-17T02:51:25.385Z,1007.57
2018-12-17T02:52:25.397Z,1007.54
2018-12-17T02:53:25.407Z,1007.54
2018-12-17T02:54:25.415Z,1007.53
2018-12-17T02:55:25.433Z,1007.55
2018-12-17T02:56:25.437Z,1007.52
2018-12-17T02:57:25.448Z,1007.52
2018-12-17T02:58:25.460Z,1007.55
2018-12-17T02:59:25.467Z,1007.56
2018-12-17T03:00:25.485Z,1007.58
2018-12-17T03:01:25.492Z,1007.52
2018-12-17T03:02:25.504Z,1007.51
2018-12-17T03:03:25.518Z,1007.54
2018-12-17T03:04:25.526Z,1007.58
2018-12-17T03:05:25.543Z,1007.57
2018-12-17T03:06:25.547Z,1007.60
2018-12-17T03:07:25.561Z,1007.57
2018-12-17T03:08:25.569Z,1007.56
2018-12-17T03:38:16.527Z,1007.55
2018-12-17T03:39:16.502Z,1007.53
2018-12-17T03:41:08.400Z,1007.48
2018-12-17T03:42:08.404Z,1007.49
2018-12-17T03:44:00.344Z,1007.54
2018-12-17T03:45:00.331Z,1007.48
2018-12-17T03:46:52.243Z,1007.53
2018-12-17T03:47:52.228Z,1007.49
2018-12-17T03:49:44.137Z,1007.52
2018-12-17T03:50:44.131Z,1007.56
2018-12-17T03:52:36.055Z,1007.55
2018-12-17T03:53:36.033Z,1007.58
2018-12-17T03:55:27.977Z,1007.56
2018-12-17T03:56:27.950Z,1007.57
2018-12-17T03:58:19.889Z,1007.58
2018-12-17T03:59:19.868Z,1007.56
2018-12-17T04:01:11.770Z,1007.58
2018-12-17T04:02:11.776Z,1007.57
2018-12-17T04:04:03.699Z,1007.62
2018-12-17T04:05:03.690Z,1007.62
2018-12-17T04:06:55.604Z,1007.63
2018-12-17T04:07:55.590Z,1007.60
2018-12-17T04:09:47.498Z,1007.59
2018-12-17T04:10:47.504Z,1007.66
2018-12-17T04:12:39.442Z,1007.68
2018-12-17T04:13:39.418Z,1007.65
2018-12-17T04:15:31.330Z,1007.61
2018-12-17T04:16:31.329Z,1007.62
2018-12-17T04:18:23.264Z,1007.53
2018-12-17T04:19:23.241Z,1007.51
2018-12-17T04:21:15.164Z,1007.49
2018-12-17T04:22:15.164Z,1007.50
2018-12-17T04:24:07.085Z,1007.52
2018-12-17T04:25:07.074Z,1007.54
2018-12-17T04:26:59.002Z,1007.53
2018-12-17T04:27:58.987Z,1007.59
2018-12-17T04:29:50.896Z,1007.61
2018-12-17T04:30:50.903Z,1007.64
2018-12-17T04:32:42.814Z,1007.64
2018-12-17T04:33:42.802Z,1007.64
2018-12-17T04:35:34.717Z,1007.69
2018-12-17T04:36:34.717Z,1007.70
2018-12-17T04:38:26.649Z,1007.71
2018-12-17T04:39:26.629Z,1007.69
2018-12-17T04:41:18.555Z,1007.76
2018-12-17T04:42:18.554Z,1007.74
2018-12-17T04:44:10.479Z,1007.75
2018-12-17T04:45:10.467Z,1007.84
2018-12-17T04:47:02.407Z,1007.82
2018-12-17T04:48:02.396Z,1007.78
2018-12-17T04:49:54.335Z,1007.79
2018-12-17T04:50:54.337Z,1007.86
2018-12-17T04:52:46.265Z,1007.89
2018-12-17T04:53:46.249Z,1007.90
2018-12-17T04:55:38.157Z,1007.90
2018-12-17T04:56:38.160Z,1007.91
2018-12-17T04:58:30.108Z,1007.93
2018-12-17T04:59:30.095Z,1007.95
2018-12-17T05:01:22.017Z,1007.93
2018-12-17T05:02:22.042Z,1007.95
2018-12-17T05:04:13.947Z,1008.00
2018-12-17T05:05:13.930Z,1007.97
2018-12-17T05:07:05.832Z,1007.98
2018-12-17T05:08:05.836Z,1008.03
2018-12-17T05:09:57.761Z,1007.97
2018-12-17T05:10:57.749Z,1008.05
2018-12-17T05:12:49.678Z,1008.02
2018-12-17T05:13:49.671Z,1008.01
2018-12-17T05:15:41.600Z,1007.98
2018-12-17T05:16:41.594Z,1008.00
2018-12-17T05:18:34.027Z,1007.98
2018-12-17T05:19:34.008Z,1008.03
2018-12-17T05:21:25.921Z,1008.04
2018-12-17T05:22:25.929Z,1008.04
2018-12-17T05:24:17.870Z,1007.99
2018-12-17T05:25:17.854Z,1008.05
2018-12-17T05:27:09.770Z,1008.10
2018-12-17T05:28:09.786Z,1008.10
2018-12-17T05:30:02.205Z,1008.15
2018-12-17T05:31:02.204Z,1008.17
2018-12-17T05:32:54.583Z,1008.13
2018-12-17T05:33:54.586Z,1008.15
2018-12-17T05:35:46.518Z,1008.20
2018-12-17T05:36:46.503Z,1008.17
2018-12-17T05:38:38.457Z,1008.15
2018-12-17T05:39:38.426Z,1008.19
2018-12-17T05:41:30.345Z,1008.26
2018-12-17T05:42:30.364Z,1008.26
2018-12-17T05:44:22.272Z,1008.25
2018-12-17T05:45:22.258Z,1008.32
2018-12-17T05:47:14.163Z,1008.33
2018-12-17T05:48:14.171Z,1008.32
2018-12-17T05:50:06.110Z,1008.41
2018-12-17T05:51:06.100Z,1008.39
2018-12-17T05:52:58.015Z,1008.45
2018-12-17T05:53:58.021Z,1008.39
2018-12-17T05:55:50.003Z,1008.38
2018-12-17T05:56:49.959Z,1008.44
2018-12-17T05:58:41.867Z,1008.45
2018-12-17T05:59:41.870Z,1008.44
2018-12-17T06:01:33.803Z,1008.44
2018-12-17T06:02:33.781Z,1008.47
2018-12-17T06:04:25.729Z,1008.43
2018-12-17T06:05:25.708Z,1008.44
2018-12-17T06:07:17.616Z,1008.55
2018-12-17T06:08:17.623Z,1008.48
2018-12-17T06:10:09.561Z,1008.50
2018-12-17T06:11:09.547Z,1008.58
2018-12-17T06:13:01.450Z,1008.61
2018-12-17T06:14:01.452Z,1008.59
2018-12-17T06:15:53.388Z,1008.58
2018-12-17T06:16:53.370Z,1008.60
2018-12-17T06:18:45.283Z,1008.59
2018-12-17T06:19:45.294Z,1008.65
2018-12-17T06:21:37.235Z,1008.62
2018-12-17T06:22:37.218Z,1008.65
2018-12-17T06:24:29.165Z,1008.67
2018-12-17T06:25:29.150Z,1008.72
2018-12-17T06:27:21.033Z,1008.72
2018-12-17T06:28:21.036Z,1008.71
2018-12-17T06:30:12.990Z,1008.72
2018-12-17T06:31:12.978Z,1008.75
2018-12-17T06:33:05.880Z,1008.79
2018-12-17T06:34:04.914Z,1008.80
2018-12-17T06:35:56.841Z,1008.81
2018-12-17T06:36:56.824Z,1008.84
2018-12-17T06:38:48.741Z,1008.81
2018-12-17T06:39:48.750Z,1008.84
2018-12-17T06:41:40.681Z,1008.86
2018-12-17T06:42:40.666Z,1008.86
2018-12-17T06:44:32.582Z,1008.88
2018-12-17T06:45:32.588Z,1008.91
2018-12-17T06:47:24.525Z,1008.90
2018-12-17T06:48:24.506Z,1008.87
2018-12-17T06:50:16.469Z,1008.97
2018-12-17T06:51:16.436Z,1008.94
2018-12-17T06:53:08.359Z,1008.96
2018-12-17T06:54:08.365Z,1008.99
2018-12-17T06:56:00.305Z,1009.00
2018-12-17T06:57:00.296Z,1008.99
2018-12-17T06:58:52.713Z,1008.99
2018-12-17T06:59:52.707Z,1009.05
2018-12-17T07:01:44.669Z,1009.06
2018-12-17T07:02:44.656Z,1009.04
2018-12-17T07:04:36.578Z,1009.10
2018-12-17T07:05:36.587Z,1009.12
2018-12-17T07:07:28.541Z,1009.15
2018-12-17T07:08:28.627Z,1009.22
2018-12-17T07:10:20.447Z,1009.24
2018-12-17T07:11:20.450Z,1009.17
2018-12-17T07:13:12.399Z,1009.21
2018-12-17T07:14:12.383Z,1009.22
2018-12-17T07:16:04.338Z,1009.24
2018-12-17T07:17:04.311Z,1009.24
2018-12-17T07:18:56.235Z,1009.24
2018-12-17T07:19:56.241Z,1009.22
2018-12-17T07:21:48.165Z,1009.26
2018-12-17T07:22:48.146Z,1009.28
2018-12-17T07:24:40.060Z,1009.31
2018-12-17T07:25:40.066Z,1009.25
2018-12-17T07:27:31.993Z,1009.31
2018-12-17T07:28:31.986Z,1009.33
2018-12-17T07:30:23.892Z,1009.37
2018-12-17T07:31:23.898Z,1009.34
2018-12-17T07:33:15.841Z,1009.33
2018-12-17T07:34:15.826Z,1009.31
2018-12-17T07:36:07.749Z,1009.42
2018-12-17T07:37:07.762Z,1009.41
2018-12-17T07:38:59.700Z,1009.42
2018-12-17T07:39:59.692Z,1009.45
2018-12-17T07:41:51.618Z,1009.42
2018-12-17T07:42:51.628Z,1009.41
2018-12-17T07:44:43.525Z,1009.45
2018-12-17T07:45:43.534Z,1009.42
2018-12-17T07:47:35.479Z,1009.50
2018-12-17T07:48:35.468Z,1009.52
2018-12-17T07:50:27.372Z,1009.50
2018-12-17T07:51:27.381Z,1009.49
2018-12-17T07:53:19.327Z,1009.51
2018-12-17T07:54:19.314Z,1009.56
2018-12-17T07:56:11.215Z,1009.57
2018-12-17T07:57:11.228Z,1009.62
2018-12-17T07:59:03.159Z,1009.60
2018-12-17T08:00:03.142Z,1009.61
2018-12-17T08:01:55.077Z,1009.65
2018-12-17T08:02:55.082Z,1009.67
2018-12-17T08:04:47.014Z,1009.67
2018-12-17T08:05:47.014Z,1009.73
2018-12-17T08:07:38.946Z,1009.72
2018-12-17T08:08:38.933Z,1009.76
2018-12-17T08:10:30.860Z,1009.75
2018-12-17T08:11:30.847Z,1009.76
2018-12-17T08:13:22.796Z,1009.82
2018-12-17T08:14:22.795Z,1009.82
2018-12-17T08:16:14.700Z,1009.88
2018-12-17T08:17:14.715Z,1009.91
2018-12-17T08:19:06.641Z,1009.86
2018-12-17T08:20:06.637Z,1009.90
2018-12-17T08:21:58.560Z,1009.96
2018-12-17T08:22:58.558Z,1009.89
2018-12-17T08:24:50.972Z,1009.96
2018-12-17T08:25:50.541Z,1009.98
2018-12-17T08:27:42.465Z,1010.05
2018-12-17T08:28:42.475Z,1010.04
2018-12-17T08:30:34.334Z,1010.09
2018-12-17T08:31:34.339Z,1010.08
2018-12-17T08:33:26.267Z,1010.11
2018-12-17T08:34:27.168Z,1010.14
2018-12-17T08:36:18.160Z,1010.22
2018-12-17T08:37:18.161Z,1010.19
2018-12-17T08:39:10.096Z,1010.20
2018-12-17T08:40:10.083Z,1010.27
2018-12-17T08:42:02.010Z,1010.28
2018-12-17T08:43:01.998Z,1010.29
2018-12-17T08:44:53.989Z,1010.29
2018-12-17T08:45:53.922Z,1010.26
2018-12-17T08:47:45.830Z,1010.34
2018-12-17T08:48:45.836Z,1010.34
2018-12-17T08:50:37.769Z,1010.34
2018-12-17T08:51:37.762Z,1010.35
2018-12-17T08:53:29.718Z,1010.39
2018-12-17T08:54:29.695Z,1010.39
2018-12-17T08:56:21.606Z,1010.39
2018-12-17T08:57:21.611Z,1010.39
2018-12-17T08:59:13.542Z,1010.46
2018-12-17T09:00:13.523Z,1010.44
2018-12-17T09:02:05.454Z,1010.52
2018-12-17T09:03:05.458Z,1010.54
2018-12-17T09:04:57.418Z,1010.55
2018-12-17T09:05:57.410Z,1010.63
2018-12-17T09:07:49.341Z,1010.58
2018-12-17T09:08:49.340Z,1010.60
2018-12-17T09:10:41.284Z,1010.63
2018-12-17T09:11:41.266Z,1010.60
2018-12-17T09:13:33.195Z,1010.69
2018-12-17T09:14:33.183Z,1010.72
2018-12-17T09:16:25.118Z,1010.72
2018-12-17T09:17:25.125Z,1010.72
2018-12-17T09:19:17.088Z,1010.73
2018-12-17T09:20:17.069Z,1010.68
2018-12-17T09:22:08.978Z,1010.68
2018-12-17T09:23:08.979Z,1010.70
2018-12-17T09:25:00.919Z,1010.73
2018-12-17T09:26:00.905Z,1010.75
2018-12-17T09:27:52.848Z,1010.77
2018-12-17T09:28:52.843Z,1010.84
2018-12-17T09:30:44.806Z,1010.82
2018-12-17T09:31:44.792Z,1010.88
2018-12-17T09:33:36.721Z,1010.86
2018-12-17T09:34:36.710Z,1010.92
2018-12-17T09:36:28.631Z,1010.95
2018-12-17T09:37:28.639Z,1010.98
2018-12-17T09:39:20.564Z,1010.99
2018-12-17T09:40:20.711Z,1011.02
2018-12-17T09:42:12.693Z,1011.07
2018-12-17T09:43:12.603Z,1011.08
2018-12-17T09:44:12.479Z,1011.16
2018-12-17T09:45:12.505Z,1011.09
2018-12-17T09:46:12.812Z,1011.15
2018-12-17T09:47:12.726Z,1011.21
2018-12-17T09:48:12.729Z,1011.17
2018-12-17T09:49:12.625Z,1011.21
2018-12-17T09:50:12.757Z,1011.20
2018-12-17T09:51:19.319Z,1011.19
2018-12-17T09:52:12.582Z,1011.24
2018-12-17T09:53:13.882Z,1011.24
2018-12-17T09:54:12.610Z,1011.20
2018-12-17T09:55:12.908Z,1011.27
2018-12-17T09:56:12.652Z,1011.25
2018-12-17T09:57:14.155Z,1011.27
2018-12-17T09:58:12.714Z,1011.23
2018-12-17T09:59:12.784Z,1011.24
2018-12-17T10:00:12.737Z,1011.23
2018-12-17T10:01:12.744Z,1011.25
2018-12-17T10:02:15.403Z,1011.28
2018-12-17T10:03:12.747Z,1011.30
2018-12-17T10:04:12.752Z,1011.27
2018-12-17T10:05:13.917Z,1011.28
2018-12-17T10:06:12.896Z,1011.35
2018-12-17T10:07:12.859Z,1011.32
2018-12-17T10:08:12.851Z,1011.32
2018-12-17T10:09:12.919Z,1011.31
2018-12-17T10:10:13.877Z,1011.36
2018-12-17T10:11:12.842Z,1011.29
2018-12-17T10:12:13.032Z,1011.31
2018-12-17T10:13:12.937Z,1011.36
2018-12-17T10:14:13.110Z,1011.33
2018-12-17T10:15:12.949Z,1011.35
2018-12-17T10:16:13.005Z,1011.34
2018-12-17T10:17:13.033Z,1011.34
2018-12-17T10:18:12.967Z,1011.32
2018-12-17T10:19:13.045Z,1011.39
2018-12-17T10:20:13.001Z,1011.34
2018-12-17T10:21:13.059Z,1011.32
2018-12-17T10:22:13.123Z,1011.31
2018-12-17T10:23:13.044Z,1011.33
2018-12-17T10:24:13.078Z,1011.31
2018-12-17T10:25:13.087Z,1011.29
2018-12-17T10:26:13.049Z,1011.31
2018-12-17T10:27:13.064Z,1011.33
2018-12-17T10:28:13.070Z,1011.33
2018-12-17T10:29:13.107Z,1011.30
2018-12-17T10:30:13.108Z,1011.35
2018-12-17T10:31:13.160Z,1011.38
2018-12-17T10:32:13.125Z,1011.39
2018-12-17T10:33:13.140Z,1011.38
2018-12-17T10:34:13.157Z,1011.40
2018-12-17T10:35:13.183Z,1011.33
2018-12-17T10:36:13.181Z,1011.36
2018-12-17T10:37:13.209Z,1011.36
2018-12-17T10:38:13.217Z,1011.40
2018-12-17T10:39:13.226Z,1011.39
2018-12-17T10:40:13.241Z,1011.32
2018-12-17T10:41:13.262Z,1011.36
2018-12-17T10:42:13.321Z,1011.38
2018-12-17T10:43:13.283Z,1011.37
2018-12-17T10:44:13.293Z,1011.42
2018-12-17T10:45:13.320Z,1011.42
2018-12-17T10:46:13.331Z,1011.41
2018-12-17T10:47:13.334Z,1011.44
2018-12-17T10:48:13.392Z,1011.42
2018-12-17T10:49:13.370Z,1011.45
2018-12-17T10:50:13.386Z,1011.45
2018-12-17T10:51:13.408Z,1011.50
2018-12-17T10:52:13.405Z,1011.46
2018-12-17T10:53:13.421Z,1011.46
2018-12-17T10:54:13.435Z,1011.53
2018-12-17T10:55:13.462Z,1011.52
2018-12-17T10:56:13.468Z,1011.51
2018-12-17T10:57:13.478Z,1011.53
2018-12-17T10:58:13.498Z,1011.55
2018-12-17T10:59:13.509Z,1011.56
2018-12-17T11:00:13.519Z,1011.52
2018-12-17T11:01:13.622Z,1011.55
2018-12-17T11:02:13.601Z,1011.58
2018-12-17T11:03:13.577Z,1011.61
2018-12-17T11:04:13.579Z,1011.64
2018-12-17T11:05:13.593Z,1011.62
2018-12-17T11:06:13.609Z,1011.63
2018-12-17T11:07:13.625Z,1011.57
2018-12-17T11:08:13.644Z,1011.61
2018-12-17T11:09:13.642Z,1011.64
2018-12-17T11:10:13.708Z,1011.66
2018-12-17T11:11:13.681Z,1011.67
2018-12-17T11:12:13.692Z,1011.65
2018-12-17T11:13:13.699Z,1011.67
2018-12-17T11:14:13.719Z,1011.69
2018-12-17T11:15:13.736Z,1011.70
2018-12-17T11:16:13.745Z,1011.66
2018-12-17T11:17:13.757Z,1011.69
2018-12-17T11:18:13.775Z,1011.71
2018-12-17T11:19:13.789Z,1011.70
2018-12-17T11:20:14.936Z,1011.72
2018-12-17T11:21:13.816Z,1011.66
2018-12-17T11:22:13.829Z,1011.67
2018-12-17T11:23:13.847Z,1011.66
2018-12-17T11:24:13.859Z,1011.67
2018-12-17T11:25:13.873Z,1011.69
2018-12-17T11:26:13.895Z,1011.70
2018-12-17T11:27:13.905Z,1011.76
2018-12-17T11:28:13.918Z,1011.75
2018-12-17T11:29:13.947Z,1011.78
2018-12-17T11:30:13.938Z,1011.75
2018-12-17T11:31:13.955Z,1011.77
2018-12-17T11:32:13.970Z,1011.78
2018-12-17T11:33:13.991Z,1011.77
2018-12-17T11:34:14.003Z,1011.77
2018-12-17T11:35:14.008Z,1011.76
2018-12-17T11:36:14.021Z,1011.75
2018-12-17T11:37:14.042Z,1011.80
2018-12-17T11:38:14.057Z,1011.77
2018-12-17T11:39:14.076Z,1011.83
2018-12-17T11:40:14.083Z,1011.80
2018-12-17T11:41:14.089Z,1011.88
2018-12-17T11:42:14.118Z,1011.88
2018-12-17T11:43:14.134Z,1011.87
2018-12-17T11:44:14.135Z,1011.87
2018-12-17T11:45:14.152Z,1011.85
2018-12-17T11:46:14.172Z,1011.90
2018-12-17T11:47:14.186Z,1011.91
2018-12-17T11:48:14.189Z,1011.89
2018-12-17T11:49:14.204Z,1011.88
2018-12-17T11:50:14.230Z,1011.94
2018-12-17T11:51:14.237Z,1011.94
2018-12-17T11:52:14.251Z,1011.95
2018-12-17T11:53:14.263Z,1011.95
2018-12-17T11:54:14.277Z,1011.89
2018-12-17T11:55:14.308Z,1011.92
2018-12-17T11:56:14.299Z,1011.92
2018-12-17T11:57:14.371Z,1011.97
2018-12-17T11:58:14.340Z,1011.91
2018-12-17T11:59:14.345Z,1011.96
2018-12-17T12:00:14.358Z,1011.89
2018-12-17T12:01:14.368Z,1011.88
2018-12-17T12:02:14.397Z,1011.90
2018-12-17T12:03:14.404Z,1011.88
2018-12-17T12:04:14.420Z,1011.89
2018-12-17T12:05:14.427Z,1011.94
2018-12-17T12:06:14.559Z,1011.94
2018-12-17T12:07:14.469Z,1011.96
2018-12-17T12:08:14.528Z,1011.93
2018-12-17T12:09:14.518Z,1011.97
2018-12-17T12:10:14.499Z,1011.99
2018-12-17T12:11:14.510Z,1011.96
2018-12-17T12:12:14.533Z,1011.99
2018-12-17T12:13:14.542Z,1011.93
2018-12-17T12:14:14.572Z,1011.95
2018-12-17T12:15:14.566Z,1011.97
2018-12-17T12:16:14.589Z,1011.98
2018-12-17T12:17:14.597Z,1011.99
2018-12-17T12:18:14.611Z,1012.01
2018-12-17T12:19:14.629Z,1012.02
2018-12-17T12:20:14.658Z,1012.01
2018-12-17T12:21:14.662Z,1012.06
2018-12-17T12:22:14.669Z,1012.04
2018-12-17T12:23:14.680Z,1012.05
2018-12-17T12:24:14.697Z,1012.05
2018-12-17T12:25:14.711Z,1012.07
2018-12-17T12:26:14.730Z,1012.15
2018-12-17T12:27:14.736Z,1012.12
2018-12-17T12:28:14.767Z,1012.10
2018-12-17T12:29:14.774Z,1012.19
2018-12-17T12:30:14.783Z,1012.18
2018-12-17T12:31:14.796Z,1012.19
2018-12-17T12:32:14.808Z,1012.21
2018-12-17T12:33:14.824Z,1012.21
2018-12-17T12:34:14.839Z,1012.18
2018-12-17T12:35:14.849Z,1012.22
2018-12-17T12:36:14.883Z,1012.20
2018-12-17T12:37:14.883Z,1012.31
2018-12-17T12:38:14.895Z,1012.28
2018-12-17T12:39:14.923Z,1012.29
2018-12-17T12:40:14.924Z,1012.26
2018-12-17T12:41:14.935Z,1012.37
2018-12-17T12:42:14.971Z,1012.32
2018-12-17T12:43:14.962Z,1012.34
2018-12-17T12:44:14.982Z,1012.36
2018-12-17T12:45:14.994Z,1012.37
2018-12-17T12:46:15.006Z,1012.36
2018-12-17T12:47:15.028Z,1012.41
2018-12-17T12:48:15.036Z,1012.40
2018-12-17T12:49:15.047Z,1012.38
2018-12-17T12:50:15.074Z,1012.42
2018-12-17T12:51:15.081Z,1012.37
2018-12-17T12:52:15.090Z,1012.40
2018-12-17T12:53:15.101Z,1012.42
2018-12-17T12:54:15.120Z,1012.44
2018-12-17T12:55:15.139Z,1012.43
2018-12-17T12:56:15.156Z,1012.47
2018-12-17T12:57:15.168Z,1012.44
2018-12-17T12:58:15.173Z,1012.53
2018-12-17T12:59:15.191Z,1012.54
2018-12-17T13:00:15.201Z,1012.59
2018-12-17T13:01:15.212Z,1012.61
2018-12-17T13:02:15.236Z,1012.65
2018-12-17T13:03:15.244Z,1012.66
2018-12-17T13:04:15.267Z,1012.70
2018-12-17T13:05:15.288Z,1012.66
2018-12-17T13:06:15.284Z,1012.69
2018-12-17T13:07:15.325Z,1012.70
2018-12-17T13:08:15.314Z,1012.68
2018-12-17T13:09:15.330Z,1012.68
2018-12-17T13:10:15.338Z,1012.71
2018-12-17T13:11:15.358Z,1012.67
2018-12-17T13:12:15.370Z,1012.70
2018-12-17T13:13:15.384Z,1012.75
2018-12-17T13:14:15.401Z,1012.76
2018-12-17T13:15:15.415Z,1012.79
2018-12-17T13:16:15.422Z,1012.81
2018-12-17T13:17:15.437Z,1012.77
2018-12-17T13:18:15.453Z,1012.78
2018-12-17T13:19:15.467Z,1012.83
2018-12-17T13:20:15.492Z,1012.82
2018-12-17T13:21:15.496Z,1012.87
2018-12-17T13:22:15.514Z,1012.90
2018-12-17T13:23:15.541Z,1012.91
2018-12-17T13:24:15.531Z,1012.87
2018-12-17T13:25:15.547Z,1012.93
2018-12-17T13:26:15.569Z,1012.98
2018-12-17T13:27:15.579Z,1012.94
2018-12-17T13:28:15.588Z,1012.96
2018-12-17T13:29:15.614Z,1012.97
2018-12-17T13:30:15.615Z,1012.99
2018-12-17T13:31:15.628Z,1012.97
2018-12-17T13:32:15.642Z,1012.99
2018-12-17T13:33:15.679Z,1012.97
2018-12-17T13:34:15.670Z,1013.00
2018-12-17T13:35:15.685Z,1013.03
2018-12-17T13:36:15.704Z,1012.98
2018-12-17T13:37:15.711Z,1013.03
2018-12-17T13:38:15.726Z,1012.99
2018-12-17T13:39:15.741Z,1013.00
2018-12-17T13:40:15.765Z,1013.04
2018-12-17T13:41:15.765Z,1013.04
2018-12-17T13:42:15.782Z,1013.00
2018-12-17T13:43:15.801Z,1013.03
2018-12-17T13:44:15.806Z,1013.03
2018-12-17T13:45:15.844Z,1013.05
2018-12-17T13:46:15.858Z,1013.10
2018-12-17T13:47:15.847Z,1013.07
2018-12-17T13:48:15.866Z,1013.07
2018-12-17T13:49:15.879Z,1013.06
2018-12-17T13:50:15.890Z,1013.01
2018-12-17T13:51:15.910Z,1013.02
2018-12-17T13:52:15.919Z,1013.01
2018-12-17T13:53:15.936Z,1013.04
2018-12-17T13:54:15.952Z,1013.05
2018-12-17T13:55:15.961Z,1013.12
2018-12-17T13:56:15.976Z,1013.10
2018-12-17T13:57:15.987Z,1013.17
2018-12-17T13:58:16.042Z,1013.17
2018-12-17T13:59:16.017Z,1013.18
2018-12-17T14:00:16.035Z,1013.22
2018-12-17T14:01:21.693Z,1013.23
2018-12-17T14:02:16.081Z,1013.23
2018-12-17T14:03:16.097Z,1013.21
2018-12-17T14:04:16.115Z,1013.19
2018-12-17T14:05:16.117Z,1013.14
2018-12-17T14:06:16.130Z,1013.23
2018-12-17T14:07:16.133Z,1013.23
2018-12-17T14:08:16.142Z,1013.26
2018-12-17T14:09:16.159Z,1013.25
2018-12-17T14:10:16.173Z,1013.31
2018-12-17T14:11:16.182Z,1013.33
2018-12-17T14:12:16.198Z,1013.36
2018-12-17T14:13:16.217Z,1013.40
2018-12-17T14:14:16.231Z,1013.42
2018-12-17T14:15:16.860Z,1013.42
2018-12-17T14:16:16.261Z,1013.43
2018-12-17T14:17:16.272Z,1013.47
2018-12-17T14:18:16.284Z,1013.49
2018-12-17T14:19:16.304Z,1013.52
2018-12-17T14:20:16.311Z,1013.60
2018-12-17T14:21:16.331Z,1013.61
2018-12-17T14:22:16.346Z,1013.64
2018-12-17T14:23:16.363Z,1013.69
2018-12-17T14:24:16.369Z,1013.74